Hovedside
METAR-TAF:

METAR-TAF

Lufthavner :

Fua'amotu internasjonale lufthavn

Tongatapu, Tonga

breddegrad: 21-14S, lengdegrad: 175-09W, høyde over havet: 38 m

Gjeldene værobservasjon

Denne rapporten ble laget for 29 minutter siden, klokken 13:00 UTC
Vind 7 kt fra Sørøst
Temperatur 24°C
Luftfuktighet 83%
Trykk 1015 hPa
Sikt 10 km eller mer
Spredte skyer i en høyde av 1600 ft

METAR: NFTF 221300Z 14007KT 9999 SCT016 24/21 Q1015

Tid: 02:29 (13:29 UTC)

Varsel

Denne rapporten ble laget for 2 timer og 12 minutter siden, klokken 11:17 UTC
Varsel gyldig fra 22. klokken 12 UTC til 23. klokken 12 UTC
Vind 8 kt fra Sørøst
Sikt 10 km eller mer
Få skyer i en høyde av 1800 ft
Spredte skyer i en høyde av 4000 ft

TAF: NFTF 221117Z 2212/2312 14008KT 9999 FEW018 SCT040

Værobservasjoner og værvarsel for over 4000 flyplasser (METAR- og TAF-rapporter).

Tilgjengelige stasjoner er representert av de røde og gule prikkene på kartet.

Hold musepekeren over prikken for å se navnet på stasjonen.

Klikk så for å se værobservasjoner og -varsler.

For å forandre kartet kan du klikke på den grønne knappen med svart kryss for å zoome inn, på den grønne knappen med strek for å zoome ut, eller på de grønne pilene for å se tilstøtende kart.


METAR-TAF: